sensor_id;sensor_type;location;lat;lon;timestamp;P1;durP1;ratioP1;P2;durP2;ratioP2
72951;SDS011;61102;51.956;5.878;2023-06-14T00:02:09;4.05;;;1.40;;
72951;SDS011;61102;51.956;5.878;2023-06-14T00:04:35;4.63;;;1.30;;
72951;SDS011;61102;51.956;5.878;2023-06-14T00:07:03;5.00;;;1.45;;
72951;SDS011;61102;51.956;5.878;2023-06-14T00:09:29;6.07;;;1.38;;
72951;SDS011;61102;51.956;5.878;2023-06-14T00:11:55;4.18;;;1.33;;
72951;SDS011;61102;51.956;5.878;2023-06-14T00:14:21;5.70;;;1.30;;
72951;SDS011;61102;51.956;5.878;2023-06-14T00:16:47;5.25;;;1.40;;
72951;SDS011;61102;51.956;5.878;2023-06-14T00:19:13;4.15;;;1.30;;
72951;SDS011;61102;51.956;5.878;2023-06-14T00:21:39;4.68;;;1.40;;
72951;SDS011;61102;51.956;5.878;2023-06-14T00:24:07;4.70;;;1.48;;
72951;SDS011;61102;51.956;5.878;2023-06-14T00:26:33;4.00;;;1.02;;
72951;SDS011;61102;51.956;5.878;2023-06-14T00:28:59;4.65;;;1.30;;
72951;SDS011;61102;51.956;5.878;2023-06-14T00:31:26;4.18;;;1.00;;
72951;SDS011;61102;51.956;5.878;2023-06-14T00:33:53;4.65;;;1.30;;
72951;SDS011;61102;51.956;5.878;2023-06-14T00:36:19;4.40;;;0.88;;
72951;SDS011;61102;51.956;5.878;2023-06-14T00:38:45;5.43;;;1.30;;
72951;SDS011;61102;51.956;5.878;2023-06-14T00:41:11;2.55;;;1.00;;
72951;SDS011;61102;51.956;5.878;2023-06-14T00:43:37;2.63;;;0.90;;
72951;SDS011;61102;51.956;5.878;2023-06-14T00:46:03;3.72;;;1.10;;
72951;SDS011;61102;51.956;5.878;2023-06-14T00:48:29;5.05;;;1.20;;
72951;SDS011;61102;51.956;5.878;2023-06-14T00:50:57;4.25;;;1.30;;
72951;SDS011;61102;51.956;5.878;2023-06-14T00:53:23;5.40;;;1.48;;
72951;SDS011;61102;51.956;5.878;2023-06-14T00:55:51;3.70;;;1.00;;
72951;SDS011;61102;51.956;5.878;2023-06-14T00:58:17;3.88;;;1.25;;
72951;SDS011;61102;51.956;5.878;2023-06-14T01:00:43;3.47;;;1.27;;
72951;SDS011;61102;51.956;5.878;2023-06-14T01:03:10;6.32;;;1.50;;
72951;SDS011;61102;51.956;5.878;2023-06-14T01:05:38;4.78;;;1.17;;
72951;SDS011;61102;51.956;5.878;2023-06-14T01:10:53;4.45;;;1.20;;
72951;SDS011;61102;51.956;5.878;2023-06-14T01:13:34;4.57;;;1.10;;
72951;SDS011;61102;51.956;5.878;2023-06-14T01:16:02;5.40;;;1.52;;
72951;SDS011;61102;51.956;5.878;2023-06-14T01:18:30;4.28;;;1.10;;
72951;SDS011;61102;51.956;5.878;2023-06-14T01:20:57;2.42;;;0.95;;
72951;SDS011;61102;51.956;5.878;2023-06-14T01:23:24;4.82;;;1.02;;
72951;SDS011;61102;51.956;5.878;2023-06-14T01:25:52;4.13;;;1.10;;
72951;SDS011;61102;51.956;5.878;2023-06-14T01:28:18;3.33;;;0.93;;
72951;SDS011;61102;51.956;5.878;2023-06-14T01:30:47;4.40;;;1.20;;
72951;SDS011;61102;51.956;5.878;2023-06-14T01:33:18;4.85;;;1.05;;
72951;SDS011;61102;51.956;5.878;2023-06-14T01:35:50;3.92;;;1.10;;
72951;SDS011;61102;51.956;5.878;2023-06-14T01:38:18;3.95;;;1.02;;
72951;SDS011;61102;51.956;5.878;2023-06-14T01:40:46;5.82;;;1.27;;
72951;SDS011;61102;51.956;5.878;2023-06-14T01:43:14;3.85;;;1.13;;
72951;SDS011;61102;51.956;5.878;2023-06-14T01:48:08;4.90;;;1.20;;
72951;SDS011;61102;51.956;5.878;2023-06-14T01:50:34;4.30;;;1.00;;
72951;SDS011;61102;51.956;5.878;2023-06-14T01:53:01;3.70;;;1.00;;
72951;SDS011;61102;51.956;5.878;2023-06-14T01:55:27;4.32;;;1.08;;
72951;SDS011;61102;51.956;5.878;2023-06-14T01:57:53;5.63;;;1.08;;
72951;SDS011;61102;51.956;5.878;2023-06-14T02:00:19;4.25;;;0.77;;
72951;SDS011;61102;51.956;5.878;2023-06-14T02:02:47;4.60;;;1.10;;
72951;SDS011;61102;51.956;5.878;2023-06-14T02:05:14;5.72;;;1.15;;
72951;SDS011;61102;51.956;5.878;2023-06-14T02:07:44;4.78;;;1.20;;
72951;SDS011;61102;51.956;5.878;2023-06-14T02:10:14;3.08;;;1.00;;
72951;SDS011;61102;51.956;5.878;2023-06-14T02:12:43;3.45;;;0.90;;
72951;SDS011;61102;51.956;5.878;2023-06-14T02:15:09;4.57;;;1.00;;
72951;SDS011;61102;51.956;5.878;2023-06-14T02:17:42;4.28;;;1.13;;
72951;SDS011;61102;51.956;5.878;2023-06-14T02:20:09;2.42;;;0.68;;
72951;SDS011;61102;51.956;5.878;2023-06-14T02:22:36;3.92;;;0.90;;
72951;SDS011;61102;51.956;5.878;2023-06-14T02:25:02;3.33;;;1.10;;
72951;SDS011;61102;51.956;5.878;2023-06-14T02:27:28;5.07;;;1.13;;
72951;SDS011;61102;51.956;5.878;2023-06-14T02:29:54;4.00;;;1.10;;
72951;SDS011;61102;51.956;5.878;2023-06-14T02:32:20;5.38;;;1.17;;
72951;SDS011;61102;51.956;5.878;2023-06-14T02:34:46;5.88;;;1.33;;
72951;SDS011;61102;51.956;5.878;2023-06-14T02:37:15;4.85;;;1.05;;
72951;SDS011;61102;51.956;5.878;2023-06-14T02:39:42;4.45;;;1.10;;
72951;SDS011;61102;51.956;5.878;2023-06-14T02:42:08;3.03;;;1.00;;
72951;SDS011;61102;51.956;5.878;2023-06-14T02:44:34;3.60;;;0.98;;
72951;SDS011;61102;51.956;5.878;2023-06-14T02:47:01;4.40;;;1.05;;
72951;SDS011;61102;51.956;5.878;2023-06-14T02:49:27;5.63;;;1.10;;
72951;SDS011;61102;51.956;5.878;2023-06-14T02:51:54;5.32;;;1.30;;
72951;SDS011;61102;51.956;5.878;2023-06-14T02:54:20;4.47;;;1.00;;
72951;SDS011;61102;51.956;5.878;2023-06-14T02:56:59;4.07;;;1.02;;
72951;SDS011;61102;51.956;5.878;2023-06-14T02:59:25;5.50;;;1.20;;
72951;SDS011;61102;51.956;5.878;2023-06-14T03:01:54;5.72;;;0.85;;
72951;SDS011;61102;51.956;5.878;2023-06-14T03:04:20;2.95;;;0.93;;
72951;SDS011;61102;51.956;5.878;2023-06-14T03:06:46;3.00;;;0.80;;
72951;SDS011;61102;51.956;5.878;2023-06-14T03:09:16;5.07;;;1.10;;
72951;SDS011;61102;51.956;5.878;2023-06-14T03:11:43;3.47;;;1.05;;
72951;SDS011;61102;51.956;5.878;2023-06-14T03:14:09;3.95;;;1.02;;
72951;SDS011;61102;51.956;5.878;2023-06-14T03:16:37;4.25;;;1.30;;
72951;SDS011;61102;51.956;5.878;2023-06-14T03:19:09;3.80;;;0.90;;
72951;SDS011;61102;51.956;5.878;2023-06-14T03:21:36;3.45;;;1.10;;
72951;SDS011;61102;51.956;5.878;2023-06-14T03:24:03;5.47;;;1.00;;
72951;SDS011;61102;51.956;5.878;2023-06-14T03:26:30;4.07;;;1.10;;
72951;SDS011;61102;51.956;5.878;2023-06-14T03:28:58;2.40;;;0.80;;
72951;SDS011;61102;51.956;5.878;2023-06-14T03:31:25;3.33;;;1.02;;
72951;SDS011;61102;51.956;5.878;2023-06-14T03:33:52;4.13;;;1.05;;
72951;SDS011;61102;51.956;5.878;2023-06-14T03:36:19;3.92;;;0.93;;
72951;SDS011;61102;51.956;5.878;2023-06-14T03:38:45;4.93;;;1.00;;
72951;SDS011;61102;51.956;5.878;2023-06-14T03:41:13;3.42;;;0.90;;
72951;SDS011;61102;51.956;5.878;2023-06-14T03:43:39;3.28;;;0.85;;
72951;SDS011;61102;51.956;5.878;2023-06-14T03:46:06;5.03;;;0.88;;
72951;SDS011;61102;51.956;5.878;2023-06-14T03:48:33;2.40;;;0.80;;
72951;SDS011;61102;51.956;5.878;2023-06-14T03:51:01;6.07;;;1.05;;
72951;SDS011;61102;51.956;5.878;2023-06-14T03:53:29;2.67;;;0.85;;
72951;SDS011;61102;51.956;5.878;2023-06-14T03:55:55;3.35;;;1.00;;
72951;SDS011;61102;51.956;5.878;2023-06-14T03:58:25;3.00;;;0.90;;
72951;SDS011;61102;51.956;5.878;2023-06-14T04:00:51;10.23;;;1.25;;
72951;SDS011;61102;51.956;5.878;2023-06-14T04:03:17;2.35;;;0.77;;
72951;SDS011;61102;51.956;5.878;2023-06-14T04:05:45;3.13;;;0.90;;
72951;SDS011;61102;51.956;5.878;2023-06-14T04:08:15;4.28;;;0.90;;
72951;SDS011;61102;51.956;5.878;2023-06-14T04:10:41;3.97;;;1.08;;
72951;SDS011;61102;51.956;5.878;2023-06-14T04:13:07;5.25;;;1.30;;
72951;SDS011;61102;51.956;5.878;2023-06-14T04:15:33;3.97;;;1.30;;
72951;SDS011;61102;51.956;5.878;2023-06-14T04:18:01;4.78;;;1.23;;
72951;SDS011;61102;51.956;5.878;2023-06-14T04:20:27;3.28;;;1.02;;
72951;SDS011;61102;51.956;5.878;2023-06-14T04:22:57;3.55;;;1.00;;
72951;SDS011;61102;51.956;5.878;2023-06-14T04:25:23;3.55;;;1.00;;
72951;SDS011;61102;51.956;5.878;2023-06-14T04:27:52;5.93;;;1.13;;
72951;SDS011;61102;51.956;5.878;2023-06-14T04:30:21;3.92;;;1.20;;
72951;SDS011;61102;51.956;5.878;2023-06-14T04:32:52;4.43;;;1.27;;
72951;SDS011;61102;51.956;5.878;2023-06-14T04:35:19;4.28;;;1.00;;
72951;SDS011;61102;51.956;5.878;2023-06-14T04:37:47;3.83;;;1.02;;
72951;SDS011;61102;51.956;5.878;2023-06-14T04:40:13;4.32;;;0.90;;
72951;SDS011;61102;51.956;5.878;2023-06-14T04:45:09;4.72;;;1.10;;
72951;SDS011;61102;51.956;5.878;2023-06-14T04:47:37;4.18;;;1.02;;
72951;SDS011;61102;51.956;5.878;2023-06-14T04:50:05;5.15;;;1.15;;
72951;SDS011;61102;51.956;5.878;2023-06-14T04:52:32;4.40;;;1.23;;
72951;SDS011;61102;51.956;5.878;2023-06-14T04:54:58;6.90;;;1.30;;
72951;SDS011;61102;51.956;5.878;2023-06-14T04:57:26;5.25;;;1.40;;
72951;SDS011;61102;51.956;5.878;2023-06-14T04:59:55;6.05;;;1.27;;
72951;SDS011;61102;51.956;5.878;2023-06-14T05:02:24;4.10;;;1.08;;
72951;SDS011;61102;51.956;5.878;2023-06-14T05:04:52;4.10;;;1.05;;
72951;SDS011;61102;51.956;5.878;2023-06-14T05:07:19;4.95;;;1.20;;
72951;SDS011;61102;51.956;5.878;2023-06-14T05:09:46;5.82;;;1.20;;
72951;SDS011;61102;51.956;5.878;2023-06-14T05:12:12;6.97;;;1.20;;
72951;SDS011;61102;51.956;5.878;2023-06-14T05:14:39;4.60;;;1.30;;
72951;SDS011;61102;51.956;5.878;2023-06-14T05:17:06;3.35;;;0.85;;
72951;SDS011;61102;51.956;5.878;2023-06-14T05:19:35;4.57;;;1.10;;
72951;SDS011;61102;51.956;5.878;2023-06-14T05:22:02;4.43;;;1.23;;
72951;SDS011;61102;51.956;5.878;2023-06-14T05:24:28;5.85;;;1.40;;
72951;SDS011;61102;51.956;5.878;2023-06-14T05:26:57;4.35;;;1.30;;
72951;SDS011;61102;51.956;5.878;2023-06-14T05:29:23;5.05;;;1.20;;
72951;SDS011;61102;51.956;5.878;2023-06-14T05:31:50;3.90;;;1.17;;
72951;SDS011;61102;51.956;5.878;2023-06-14T05:34:16;6.05;;;1.70;;
72951;SDS011;61102;51.956;5.878;2023-06-14T05:36:42;4.70;;;1.20;;
72951;SDS011;61102;51.956;5.878;2023-06-14T05:39:08;3.08;;;0.95;;
72951;SDS011;61102;51.956;5.878;2023-06-14T05:41:34;4.43;;;1.17;;
72951;SDS011;61102;51.956;5.878;2023-06-14T05:44:01;5.70;;;1.30;;
72951;SDS011;61102;51.956;5.878;2023-06-14T05:46:27;5.25;;;1.30;;
72951;SDS011;61102;51.956;5.878;2023-06-14T05:48:54;5.28;;;1.20;;
72951;SDS011;61102;51.956;5.878;2023-06-14T05:51:21;5.10;;;1.10;;
72951;SDS011;61102;51.956;5.878;2023-06-14T05:53:47;4.10;;;1.20;;
72951;SDS011;61102;51.956;5.878;2023-06-14T05:56:14;9.02;;;1.50;;
72951;SDS011;61102;51.956;5.878;2023-06-14T06:01:06;5.88;;;1.25;;
72951;SDS011;61102;51.956;5.878;2023-06-14T06:03:33;4.75;;;1.48;;
72951;SDS011;61102;51.956;5.878;2023-06-14T06:05:59;4.57;;;1.40;;
72951;SDS011;61102;51.956;5.878;2023-06-14T06:08:26;5.90;;;1.20;;
72951;SDS011;61102;51.956;5.878;2023-06-14T06:10:52;3.58;;;1.10;;
72951;SDS011;61102;51.956;5.878;2023-06-14T06:13:18;3.08;;;1.13;;
72951;SDS011;61102;51.956;5.878;2023-06-14T06:15:44;3.83;;;1.10;;
72951;SDS011;61102;51.956;5.878;2023-06-14T06:18:11;5.38;;;1.17;;
72951;SDS011;61102;51.956;5.878;2023-06-14T06:20:37;3.28;;;1.10;;
72951;SDS011;61102;51.956;5.878;2023-06-14T06:23:03;3.08;;;0.90;;
72951;SDS011;61102;51.956;5.878;2023-06-14T06:25:29;4.47;;;1.30;;
72951;SDS011;61102;51.956;5.878;2023-06-14T06:27:57;2.92;;;1.00;;
72951;SDS011;61102;51.956;5.878;2023-06-14T06:30:24;5.93;;;1.20;;
72951;SDS011;61102;51.956;5.878;2023-06-14T06:32:50;5.20;;;1.20;;
72951;SDS011;61102;51.956;5.878;2023-06-14T06:35:17;5.57;;;1.10;;
72951;SDS011;61102;51.956;5.878;2023-06-14T06:37:43;4.30;;;1.02;;
72951;SDS011;61102;51.956;5.878;2023-06-14T06:40:09;10.00;;;1.42;;
72951;SDS011;61102;51.956;5.878;2023-06-14T06:42:36;3.60;;;1.17;;
72951;SDS011;61102;51.956;5.878;2023-06-14T06:45:04;5.40;;;1.40;;
72951;SDS011;61102;51.956;5.878;2023-06-14T06:47:30;6.68;;;1.50;;
72951;SDS011;61102;51.956;5.878;2023-06-14T06:49:56;3.92;;;1.13;;
72951;SDS011;61102;51.956;5.878;2023-06-14T06:52:23;5.88;;;1.60;;
72951;SDS011;61102;51.956;5.878;2023-06-14T06:54:49;5.30;;;1.10;;
72951;SDS011;61102;51.956;5.878;2023-06-14T06:57:16;3.60;;;1.13;;
72951;SDS011;61102;51.956;5.878;2023-06-14T06:59:42;5.80;;;1.30;;
72951;SDS011;61102;51.956;5.878;2023-06-14T07:02:10;7.47;;;1.33;;
72951;SDS011;61102;51.956;5.878;2023-06-14T07:04:37;3.90;;;1.13;;
72951;SDS011;61102;51.956;5.878;2023-06-14T07:07:03;3.40;;;1.20;;
72951;SDS011;61102;51.956;5.878;2023-06-14T07:09:30;5.30;;;1.40;;
72951;SDS011;61102;51.956;5.878;2023-06-14T07:11:56;4.00;;;1.23;;
72951;SDS011;61102;51.956;5.878;2023-06-14T07:14:22;4.13;;;1.27;;
72951;SDS011;61102;51.956;5.878;2023-06-14T07:16:48;4.18;;;1.15;;
72951;SDS011;61102;51.956;5.878;2023-06-14T07:19:14;5.70;;;1.60;;
72951;SDS011;61102;51.956;5.878;2023-06-14T07:21:41;6.40;;;1.50;;
72951;SDS011;61102;51.956;5.878;2023-06-14T07:24:13;3.63;;;1.33;;
72951;SDS011;61102;51.956;5.878;2023-06-14T07:26:39;3.65;;;1.35;;
72951;SDS011;61102;51.956;5.878;2023-06-14T07:29:05;5.30;;;1.13;;
72951;SDS011;61102;51.956;5.878;2023-06-14T07:31:31;6.13;;;1.40;;
72951;SDS011;61102;51.956;5.878;2023-06-14T07:33:57;5.13;;;1.00;;
72951;SDS011;61102;51.956;5.878;2023-06-14T07:36:23;4.13;;;1.10;;
72951;SDS011;61102;51.956;5.878;2023-06-14T07:38:50;2.92;;;0.95;;
72951;SDS011;61102;51.956;5.878;2023-06-14T07:41:16;4.53;;;1.13;;
72951;SDS011;61102;51.956;5.878;2023-06-14T07:43:42;4.82;;;1.23;;
72951;SDS011;61102;51.956;5.878;2023-06-14T07:46:08;4.68;;;1.20;;
72951;SDS011;61102;51.956;5.878;2023-06-14T07:48:34;2.60;;;0.90;;
72951;SDS011;61102;51.956;5.878;2023-06-14T07:51:01;3.30;;;0.80;;
72951;SDS011;61102;51.956;5.878;2023-06-14T07:53:27;2.92;;;0.85;;
72951;SDS011;61102;51.956;5.878;2023-06-14T07:55:53;3.20;;;0.80;;
72951;SDS011;61102;51.956;5.878;2023-06-14T07:58:19;4.45;;;0.90;;
72951;SDS011;61102;51.956;5.878;2023-06-14T08:00:45;1.88;;;0.82;;
72951;SDS011;61102;51.956;5.878;2023-06-14T08:03:12;2.65;;;0.80;;
72951;SDS011;61102;51.956;5.878;2023-06-14T08:10:31;2.45;;;0.70;;
72951;SDS011;61102;51.956;5.878;2023-06-14T08:12:57;4.22;;;0.90;;
72951;SDS011;61102;51.956;5.878;2023-06-14T08:15:23;3.65;;;0.73;;
72951;SDS011;61102;51.956;5.878;2023-06-14T08:17:49;2.20;;;0.75;;
72951;SDS011;61102;51.956;5.878;2023-06-14T08:20:16;2.78;;;0.70;;
72951;SDS011;61102;51.956;5.878;2023-06-14T08:22:42;3.33;;;0.90;;
72951;SDS011;61102;51.956;5.878;2023-06-14T08:25:09;4.30;;;0.80;;
72951;SDS011;61102;51.956;5.878;2023-06-14T08:27:35;4.15;;;0.90;;
72951;SDS011;61102;51.956;5.878;2023-06-14T08:30:01;3.53;;;0.95;;
72951;SDS011;61102;51.956;5.878;2023-06-14T08:32:28;2.45;;;0.75;;
72951;SDS011;61102;51.956;5.878;2023-06-14T08:34:54;3.95;;;1.10;;
72951;SDS011;61102;51.956;5.878;2023-06-14T08:37:20;3.97;;;1.17;;
72951;SDS011;61102;51.956;5.878;2023-06-14T08:39:46;4.03;;;1.10;;
72951;SDS011;61102;51.956;5.878;2023-06-14T08:42:12;3.63;;;1.00;;
72951;SDS011;61102;51.956;5.878;2023-06-14T08:44:40;4.68;;;0.70;;
72951;SDS011;61102;51.956;5.878;2023-06-14T08:47:07;3.22;;;0.93;;
72951;SDS011;61102;51.956;5.878;2023-06-14T08:49:34;6.78;;;1.10;;
72951;SDS011;61102;51.956;5.878;2023-06-14T08:52:06;3.40;;;1.10;;
72951;SDS011;61102;51.956;5.878;2023-06-14T08:54:36;2.47;;;0.80;;
72951;SDS011;61102;51.956;5.878;2023-06-14T08:57:12;2.72;;;0.80;;
72951;SDS011;61102;51.956;5.878;2023-06-14T08:59:46;2.42;;;0.90;;
72951;SDS011;61102;51.956;5.878;2023-06-14T09:02:15;2.65;;;0.70;;
72951;SDS011;61102;51.956;5.878;2023-06-14T09:04:43;3.60;;;0.90;;
72951;SDS011;61102;51.956;5.878;2023-06-14T09:07:10;3.45;;;1.10;;
72951;SDS011;61102;51.956;5.878;2023-06-14T09:09:38;3.47;;;0.90;;
72951;SDS011;61102;51.956;5.878;2023-06-14T09:12:06;3.20;;;0.80;;
72951;SDS011;61102;51.956;5.878;2023-06-14T09:14:35;2.92;;;0.80;;
72951;SDS011;61102;51.956;5.878;2023-06-14T09:20:05;2.80;;;0.90;;
72951;SDS011;61102;51.956;5.878;2023-06-14T09:22:35;2.03;;;0.73;;
72951;SDS011;61102;51.956;5.878;2023-06-14T09:25:02;2.97;;;0.80;;
72951;SDS011;61102;51.956;5.878;2023-06-14T09:27:28;3.50;;;0.85;;
72951;SDS011;61102;51.956;5.878;2023-06-14T09:29:55;2.97;;;0.90;;
72951;SDS011;61102;51.956;5.878;2023-06-14T09:32:21;2.60;;;1.00;;
72951;SDS011;61102;51.956;5.878;2023-06-14T09:34:48;3.15;;;0.82;;
72951;SDS011;61102;51.956;5.878;2023-06-14T09:37:27;5.03;;;0.80;;
72951;SDS011;61102;51.956;5.878;2023-06-14T09:39:55;2.03;;;0.80;;
72951;SDS011;61102;51.956;5.878;2023-06-14T09:42:21;6.00;;;0.90;;
72951;SDS011;61102;51.956;5.878;2023-06-14T09:44:48;3.45;;;0.93;;
72951;SDS011;61102;51.956;5.878;2023-06-14T09:49:42;3.45;;;0.70;;
72951;SDS011;61102;51.956;5.878;2023-06-14T09:52:13;2.00;;;0.73;;
72951;SDS011;61102;51.956;5.878;2023-06-14T09:54:41;3.92;;;0.90;;
72951;SDS011;61102;51.956;5.878;2023-06-14T09:57:10;3.63;;;0.90;;
72951;SDS011;61102;51.956;5.878;2023-06-14T09:59:39;1.23;;;0.60;;
72951;SDS011;61102;51.956;5.878;2023-06-14T10:02:22;1.60;;;0.68;;
72951;SDS011;61102;51.956;5.878;2023-06-14T10:07:35;2.75;;;0.70;;
72951;SDS011;61102;51.956;5.878;2023-06-14T10:10:04;3.25;;;0.90;;
72951;SDS011;61102;51.956;5.878;2023-06-14T10:12:31;2.80;;;0.80;;
72951;SDS011;61102;51.956;5.878;2023-06-14T10:14:58;4.53;;;0.90;;
72951;SDS011;61102;51.956;5.878;2023-06-14T10:17:41;2.03;;;0.80;;
72951;SDS011;61102;51.956;5.878;2023-06-14T10:20:21;2.38;;;0.73;;
72951;SDS011;61102;51.956;5.878;2023-06-14T10:22:50;1.80;;;0.70;;
72951;SDS011;61102;51.956;5.878;2023-06-14T10:25:27;2.25;;;0.60;;
72951;SDS011;61102;51.956;5.878;2023-06-14T10:31:04;2.78;;;0.70;;
72951;SDS011;61102;51.956;5.878;2023-06-14T10:33:35;3.53;;;0.70;;
72951;SDS011;61102;51.956;5.878;2023-06-14T10:36:08;4.47;;;0.80;;
72951;SDS011;61102;51.956;5.878;2023-06-14T10:41:52;1.48;;;0.70;;
72951;SDS011;61102;51.956;5.878;2023-06-14T10:46:46;2.08;;;0.90;;
72951;SDS011;61102;51.956;5.878;2023-06-14T10:49:16;2.00;;;0.60;;
72951;SDS011;61102;51.956;5.878;2023-06-14T10:51:49;5.32;;;0.88;;
72951;SDS011;61102;51.956;5.878;2023-06-14T10:54:17;1.95;;;0.75;;
72951;SDS011;61102;51.956;5.878;2023-06-14T10:56:47;1.88;;;0.70;;
72951;SDS011;61102;51.956;5.878;2023-06-14T10:59:15;3.47;;;0.75;;
72951;SDS011;61102;51.956;5.878;2023-06-14T11:04:59;4.50;;;0.90;;
72951;SDS011;61102;51.956;5.878;2023-06-14T11:10:41;2.95;;;0.80;;
72951;SDS011;61102;51.956;5.878;2023-06-14T11:13:08;3.65;;;0.93;;
72951;SDS011;61102;51.956;5.878;2023-06-14T11:15:36;2.42;;;0.80;;
72951;SDS011;61102;51.956;5.878;2023-06-14T11:18:06;2.17;;;0.80;;
72951;SDS011;61102;51.956;5.878;2023-06-14T11:20:35;2.30;;;0.85;;
72951;SDS011;61102;51.956;5.878;2023-06-14T11:23:02;1.60;;;0.65;;
72951;SDS011;61102;51.956;5.878;2023-06-14T11:25:29;5.13;;;1.00;;
72951;SDS011;61102;51.956;5.878;2023-06-14T11:27:55;3.33;;;0.70;;
72951;SDS011;61102;51.956;5.878;2023-06-14T11:30:22;2.80;;;0.77;;
72951;SDS011;61102;51.956;5.878;2023-06-14T11:32:49;4.00;;;1.05;;
72951;SDS011;61102;51.956;5.878;2023-06-14T11:35:17;5.82;;;0.98;;
72951;SDS011;61102;51.956;5.878;2023-06-14T11:37:44;3.30;;;0.90;;
72951;SDS011;61102;51.956;5.878;2023-06-14T11:40:11;5.18;;;1.00;;
72951;SDS011;61102;51.956;5.878;2023-06-14T11:42:39;3.13;;;1.00;;
72951;SDS011;61102;51.956;5.878;2023-06-14T11:45:10;3.05;;;0.80;;
72951;SDS011;61102;51.956;5.878;2023-06-14T11:47:38;6.70;;;0.90;;
72951;SDS011;61102;51.956;5.878;2023-06-14T11:50:06;2.47;;;0.88;;
72951;SDS011;61102;51.956;5.878;2023-06-14T11:52:34;2.70;;;0.80;;
72951;SDS011;61102;51.956;5.878;2023-06-14T11:55:02;2.80;;;0.73;;
72951;SDS011;61102;51.956;5.878;2023-06-14T11:57:33;2.95;;;0.80;;
72951;SDS011;61102;51.956;5.878;2023-06-14T12:00:04;2.42;;;0.75;;
72951;SDS011;61102;51.956;5.878;2023-06-14T12:02:38;3.20;;;0.80;;
72951;SDS011;61102;51.956;5.878;2023-06-14T12:05:06;4.15;;;0.80;;
72951;SDS011;61102;51.956;5.878;2023-06-14T12:07:38;1.95;;;0.70;;
72951;SDS011;61102;51.956;5.878;2023-06-14T12:10:06;3.22;;;0.90;;
72951;SDS011;61102;51.956;5.878;2023-06-14T12:12:36;2.92;;;0.90;;
72951;SDS011;61102;51.956;5.878;2023-06-14T12:15:04;3.10;;;0.73;;
72951;SDS011;61102;51.956;5.878;2023-06-14T12:17:32;2.35;;;0.70;;
72951;SDS011;61102;51.956;5.878;2023-06-14T12:23:02;4.10;;;0.70;;
72951;SDS011;61102;51.956;5.878;2023-06-14T12:25:32;2.35;;;0.80;;
72951;SDS011;61102;51.956;5.878;2023-06-14T12:28:04;2.50;;;0.90;;
72951;SDS011;61102;51.956;5.878;2023-06-14T12:30:35;2.67;;;0.95;;
72951;SDS011;61102;51.956;5.878;2023-06-14T12:33:02;3.08;;;0.70;;
72951;SDS011;61102;51.956;5.878;2023-06-14T12:35:29;2.53;;;0.60;;
72951;SDS011;61102;51.956;5.878;2023-06-14T12:37:55;2.17;;;0.70;;
72951;SDS011;61102;51.956;5.878;2023-06-14T12:40:22;3.28;;;0.70;;
72951;SDS011;61102;51.956;5.878;2023-06-14T12:45:14;3.83;;;0.90;;
72951;SDS011;61102;51.956;5.878;2023-06-14T12:47:41;1.77;;;0.70;;
72951;SDS011;61102;51.956;5.878;2023-06-14T12:50:08;1.55;;;0.63;;
72951;SDS011;61102;51.956;5.878;2023-06-14T12:52:34;3.50;;;0.73;;
72951;SDS011;61102;51.956;5.878;2023-06-14T12:55:05;3.22;;;0.80;;
72951;SDS011;61102;51.956;5.878;2023-06-14T12:57:32;3.00;;;0.70;;
72951;SDS011;61102;51.956;5.878;2023-06-14T12:59:59;4.28;;;0.70;;
72951;SDS011;61102;51.956;5.878;2023-06-14T13:02:26;1.48;;;0.60;;
72951;SDS011;61102;51.956;5.878;2023-06-14T13:04:52;2.28;;;0.73;;
72951;SDS011;61102;51.956;5.878;2023-06-14T13:07:18;3.08;;;0.77;;
72951;SDS011;61102;51.956;5.878;2023-06-14T13:09:44;2.33;;;0.70;;
72951;SDS011;61102;51.956;5.878;2023-06-14T13:12:10;4.50;;;0.90;;
72951;SDS011;61102;51.956;5.878;2023-06-14T13:14:38;2.75;;;0.80;;
72951;SDS011;61102;51.956;5.878;2023-06-14T13:17:09;1.80;;;0.50;;
72951;SDS011;61102;51.956;5.878;2023-06-14T13:19:36;2.22;;;0.60;;
72951;SDS011;61102;51.956;5.878;2023-06-14T13:22:02;1.92;;;0.80;;
72951;SDS011;61102;51.956;5.878;2023-06-14T13:24:29;1.95;;;0.60;;
72951;SDS011;61102;51.956;5.878;2023-06-14T13:26:56;2.72;;;0.70;;
72951;SDS011;61102;51.956;5.878;2023-06-14T13:31:48;2.85;;;0.60;;
72951;SDS011;61102;51.956;5.878;2023-06-14T13:34:15;1.85;;;0.50;;
72951;SDS011;61102;51.956;5.878;2023-06-14T13:36:41;2.25;;;0.40;;
72951;SDS011;61102;51.956;5.878;2023-06-14T13:39:07;1.95;;;0.43;;
72951;SDS011;61102;51.956;5.878;2023-06-14T13:41:33;1.13;;;0.50;;
72951;SDS011;61102;51.956;5.878;2023-06-14T13:43:59;2.40;;;0.70;;
72951;SDS011;61102;51.956;5.878;2023-06-14T13:46:26;2.33;;;0.57;;
72951;SDS011;61102;51.956;5.878;2023-06-14T13:48:52;1.65;;;0.40;;
72951;SDS011;61102;51.956;5.878;2023-06-14T13:51:21;2.88;;;0.50;;
72951;SDS011;61102;51.956;5.878;2023-06-14T13:53:48;2.80;;;0.55;;
72951;SDS011;61102;51.956;5.878;2023-06-14T13:56:15;1.30;;;0.50;;
72951;SDS011;61102;51.956;5.878;2023-06-14T14:01:07;2.20;;;0.60;;
72951;SDS011;61102;51.956;5.878;2023-06-14T14:03:34;3.45;;;0.88;;
72951;SDS011;61102;51.956;5.878;2023-06-14T14:06:01;2.15;;;0.60;;
72951;SDS011;61102;51.956;5.878;2023-06-14T14:08:28;1.15;;;0.40;;
72951;SDS011;61102;51.956;5.878;2023-06-14T14:10:54;3.25;;;0.50;;
72951;SDS011;61102;51.956;5.878;2023-06-14T14:13:21;3.08;;;0.68;;
72951;SDS011;61102;51.956;5.878;2023-06-14T14:18:16;1.73;;;0.60;;
72951;SDS011;61102;51.956;5.878;2023-06-14T14:20:43;4.35;;;0.50;;
72951;SDS011;61102;51.956;5.878;2023-06-14T14:23:09;2.47;;;0.70;;
72951;SDS011;61102;51.956;5.878;2023-06-14T14:25:35;3.35;;;0.70;;
72951;SDS011;61102;51.956;5.878;2023-06-14T14:28:01;3.35;;;0.70;;
72951;SDS011;61102;51.956;5.878;2023-06-14T14:30:27;2.55;;;0.60;;
72951;SDS011;61102;51.956;5.878;2023-06-14T14:32:55;3.15;;;0.57;;
72951;SDS011;61102;51.956;5.878;2023-06-14T14:35:22;2.65;;;0.60;;
72951;SDS011;61102;51.956;5.878;2023-06-14T14:37:49;2.05;;;0.60;;
72951;SDS011;61102;51.956;5.878;2023-06-14T14:40:16;2.60;;;0.60;;
72951;SDS011;61102;51.956;5.878;2023-06-14T14:42:42;1.48;;;0.52;;
72951;SDS011;61102;51.956;5.878;2023-06-14T14:45:10;3.45;;;0.77;;
72951;SDS011;61102;51.956;5.878;2023-06-14T14:47:36;3.72;;;0.63;;
72951;SDS011;61102;51.956;5.878;2023-06-14T14:50:02;1.33;;;0.60;;
72951;SDS011;61102;51.956;5.878;2023-06-14T14:52:28;1.77;;;0.57;;
72951;SDS011;61102;51.956;5.878;2023-06-14T14:54:54;2.65;;;0.70;;
72951;SDS011;61102;51.956;5.878;2023-06-14T14:57:21;2.28;;;0.70;;
72951;SDS011;61102;51.956;5.878;2023-06-14T14:59:47;2.50;;;0.60;;
72951;SDS011;61102;51.956;5.878;2023-06-14T15:02:13;1.42;;;0.50;;
72951;SDS011;61102;51.956;5.878;2023-06-14T15:04:39;3.95;;;0.65;;
72951;SDS011;61102;51.956;5.878;2023-06-14T15:07:05;1.80;;;0.60;;
72951;SDS011;61102;51.956;5.878;2023-06-14T15:09:31;4.88;;;0.70;;
72951;SDS011;61102;51.956;5.878;2023-06-14T15:11:57;3.60;;;0.63;;
72951;SDS011;61102;51.956;5.878;2023-06-14T15:14:23;2.58;;;0.70;;
72951;SDS011;61102;51.956;5.878;2023-06-14T15:16:49;1.17;;;0.60;;
72951;SDS011;61102;51.956;5.878;2023-06-14T15:19:17;2.50;;;0.60;;
72951;SDS011;61102;51.956;5.878;2023-06-14T15:21:44;5.28;;;0.85;;
72951;SDS011;61102;51.956;5.878;2023-06-14T15:24:10;1.42;;;0.60;;
72951;SDS011;61102;51.956;5.878;2023-06-14T15:26:36;1.65;;;0.50;;
72951;SDS011;61102;51.956;5.878;2023-06-14T15:29:04;2.47;;;0.60;;
72951;SDS011;61102;51.956;5.878;2023-06-14T15:31:30;1.42;;;0.50;;
72951;SDS011;61102;51.956;5.878;2023-06-14T15:33:56;2.00;;;0.70;;
72951;SDS011;61102;51.956;5.878;2023-06-14T15:36:22;1.92;;;0.70;;
72951;SDS011;61102;51.956;5.878;2023-06-14T15:38:48;2.67;;;0.50;;
72951;SDS011;61102;51.956;5.878;2023-06-14T15:41:14;1.73;;;0.57;;